Time;durP1;ratioP1;P1;durP2;ratioP2;P2;SDS_P1;SDS_P2;PMS_P1;PMS_P2;Temp;Humidity;BMP_temperature;BMP_pressure;BME280_temperature;BME280_humidity;BME280_pressure;Samples;Min_cycle;Max_cycle;Signal;HPM_P1;HPM_P2
2022/10/11 00:02:06;;;;;;;7.67;6.53;;;15.10;99.90;;;;;;6030801;23;20510;-76
2022/10/11 00:04:33;;;;;;;8.23;6.07;;;15.10;99.90;;;;;;6007405;23;20437;-76
2022/10/11 00:07:00;;;;;;;10.30;6.27;;;15.10;99.90;;;;;;6030553;23;21025;-76
2022/10/11 00:09:30;;;;;;;7.80;5.97;;;15.00;99.90;;;;;;6031656;23;20474;-76
2022/10/11 00:11:57;;;;;;;9.37;6.90;;;15.00;99.90;;;;;;6025178;23;20432;-76
2022/10/11 00:14:26;;;;;;;10.63;6.80;;;15.00;99.90;;;;;;6001065;23;20938;-75
2022/10/11 00:16:54;;;;;;;9.13;6.80;;;14.90;99.90;;;;;;6005128;23;20461;-75
2022/10/11 00:19:22;;;;;;;9.13;7.00;;;14.90;99.90;;;;;;6033326;23;20441;-76
2022/10/11 00:21:49;;;;;;;7.93;6.97;;;14.90;99.90;;;;;;6032196;23;20472;-75
2022/10/11 00:24:17;;;;;;;10.07;7.10;;;14.80;99.90;;;;;;6029792;23;20443;-76
2022/10/11 00:26:45;;;;;;;7.87;6.77;;;14.80;99.90;;;;;;6032241;23;20460;-76
2022/10/11 00:29:13;;;;;;;9.23;7.13;;;14.80;99.90;;;;;;6033791;23;20967;-76
2022/10/11 00:31:40;;;;;;;13.70;9.07;;;14.70;99.90;;;;;;6033371;23;20448;-76
2022/10/11 00:34:08;;;;;;;10.17;8.57;;;14.70;99.90;;;;;;6004806;23;20436;-76
2022/10/11 00:36:35;;;;;;;8.77;7.87;;;14.70;99.90;;;;;;6032908;23;20833;-75
2022/10/11 00:39:03;;;;;;;8.90;7.33;;;14.70;99.90;;;;;;6032438;23;20476;-76
2022/10/11 00:41:30;;;;;;;9.87;7.87;;;14.60;99.90;;;;;;6003492;23;20525;-76
2022/10/11 00:44:12;;;;;;;8.37;7.20;;;14.60;99.90;;;;;;6027685;23;20466;-76
2022/10/11 00:46:42;;;;;;;8.87;8.00;;;14.50;99.90;;;;;;6004365;23;20791;-76
2022/10/11 00:49:17;;;;;;;11.63;8.30;;;14.50;99.90;;;;;;6030105;23;20447;-76
2022/10/11 00:51:49;;;;;;;10.50;9.17;;;14.40;99.90;;;;;;6028212;23;20533;-76
2022/10/11 00:54:20;;;;;;;14.50;9.70;;;14.40;99.90;;;;;;6029644;23;20489;-75
2022/10/11 00:56:53;;;;;;;10.57;9.33;;;14.30;99.90;;;;;;6033037;23;20481;-76
2022/10/11 00:59:26;;;;;;;15.83;9.20;;;14.30;99.90;;;;;;6031049;23;21166;-76
2022/10/11 01:01:56;;;;;;;10.93;9.43;;;14.20;99.90;;;;;;6006087;23;20466;-75
2022/10/11 01:04:23;;;;;;;12.03;10.50;;;14.20;99.90;;;;;;6005291;23;20856;-75
2022/10/11 01:06:53;;;;;;;12.40;10.10;;;14.30;99.90;;;;;;6008707;23;20450;-75
2022/10/11 01:09:22;;;;;;;12.47;11.23;;;14.10;99.90;;;;;;6031621;23;20512;-75
2022/10/11 01:11:51;;;;;;;15.40;11.97;;;14.10;99.90;;;;;;6029093;23;20434;-75
2022/10/11 01:14:48;;;;;;;14.30;11.87;;;14.20;99.90;;;;;;6029227;23;20534;-75
2022/10/11 01:17:24;;;;;;;13.73;12.30;;;14.10;99.90;;;;;;6006725;23;20532;-75
2022/10/11 01:20:14;;;;;;;14.53;12.40;;;14.10;99.90;;;;;;6031972;23;20467;-75
2022/10/11 01:23:09;;;;;;;13.33;12.03;;;14.00;99.90;;;;;;6028925;23;20463;-75
2022/10/11 01:25:43;;;;;;;15.10;13.60;;;14.10;99.90;;;;;;6025886;23;20457;-75
2022/10/11 01:28:42;;;;;;;14.70;13.17;;;14.00;99.90;;;;;;6031261;23;20497;-75
2022/10/11 01:31:17;;;;;;;16.27;14.70;;;14.10;99.90;;;;;;6031732;23;20800;-75
2022/10/11 01:33:52;;;;;;;15.77;14.07;;;14.20;99.90;;;;;;6005996;23;20451;-76
2022/10/11 01:36:27;;;;;;;16.87;15.30;;;14.00;99.90;;;;;;6030802;23;20796;-76
2022/10/11 01:39:03;;;;;;;18.53;16.63;;;14.10;99.90;;;;;;6032380;23;20454;-76
2022/10/11 01:41:36;;;;;;;19.33;15.90;;;14.10;99.90;;;;;;6007485;23;20474;-76
2022/10/11 01:44:05;;;;;;;17.83;15.77;;;14.10;99.90;;;;;;6030011;23;20939;-75
2022/10/11 01:46:34;;;;;;;17.80;16.03;;;14.00;99.90;;;;;;6004368;23;20434;-75
2022/10/11 01:49:02;;;;;;;18.80;16.87;;;14.00;99.90;;;;;;6032254;23;20437;-76
2022/10/11 01:51:33;;;;;;;18.93;16.63;;;14.00;99.90;;;;;;6032509;23;20520;-76
2022/10/11 01:54:13;;;;;;;18.07;15.97;;;14.10;99.90;;;;;;6029455;23;20486;-77
2022/10/11 01:57:16;;;;;;;19.60;17.53;;;14.10;99.90;;;;;;6024783;23;20919;-76
2022/10/11 01:59:57;;;;;;;20.90;18.40;;;14.10;99.90;;;;;;6008807;23;20497;-76
2022/10/11 02:02:44;;;;;;;22.07;19.67;;;14.10;99.90;;;;;;6006255;23;21061;-75
2022/10/11 02:05:20;;;;;;;21.07;18.70;;;14.10;99.90;;;;;;6027663;23;20971;-76
2022/10/11 02:07:55;;;;;;;20.50;18.20;;;14.10;99.90;;;;;;6001282;23;20547;-76
2022/10/11 02:10:29;;;;;;;22.30;19.93;;;14.10;99.90;;;;;;6002363;23;20443;-76
2022/10/11 02:13:03;;;;;;;20.03;17.93;;;14.10;99.90;;;;;;6023726;23;20944;-76
2022/10/11 02:15:34;;;;;;;21.33;19.20;;;14.10;99.90;;;;;;6029147;23;20479;-76
2022/10/11 02:18:10;;;;;;;23.87;21.37;;;14.10;99.90;;;;;;6005652;23;20979;-76
2022/10/11 02:20:39;;;;;;;24.13;21.53;;;14.20;99.90;;;;;;6032768;23;20454;-75
2022/10/11 02:23:12;;;;;;;25.27;20.30;;;14.10;99.90;;;;;;6032310;23;20466;-76
2022/10/11 02:25:45;;;;;;;21.20;19.10;;;14.10;99.90;;;;;;6006859;23;20459;-76
2022/10/11 02:28:17;;;;;;;21.67;19.00;;;14.10;99.90;;;;;;6025840;23;20862;-75
2022/10/11 02:30:46;;;;;;;21.00;18.40;;;14.10;99.90;;;;;;6032073;23;20481;-76
2022/10/11 02:33:21;;;;;;;22.90;18.60;;;14.10;99.90;;;;;;6027447;23;20849;-76
2022/10/11 02:35:55;;;;;;;24.80;20.27;;;14.20;99.90;;;;;;6028320;23;20444;-76
2022/10/11 02:38:26;;;;;;;25.30;21.23;;;14.20;99.90;;;;;;6002527;23;20519;-75
2022/10/11 02:41:01;;;;;;;26.07;19.70;;;14.20;99.90;;;;;;6032728;23;20438;-75
2022/10/11 02:43:35;;;;;;;26.90;22.63;;;14.20;99.90;;;;;;6004672;23;20445;-76
2022/10/11 02:46:04;;;;;;;28.13;22.63;;;14.20;99.90;;;;;;6030935;23;20442;-75
2022/10/11 02:48:34;;;;;;;27.43;22.23;;;14.20;99.90;;;;;;6029893;23;20815;-75
2022/10/11 02:51:03;;;;;;;28.80;23.10;;;14.20;99.90;;;;;;6005397;23;21605;-76
2022/10/11 02:53:31;;;;;;;32.80;22.50;;;14.20;99.90;;;;;;6030369;23;20775;-76
2022/10/11 02:55:58;;;;;;;27.77;21.10;;;14.20;99.90;;;;;;6029099;23;20475;-75
2022/10/11 02:58:25;;;;;;;26.50;22.27;;;14.40;99.90;;;;;;6003744;23;20418;-75
2022/10/11 03:00:52;;;;;;;28.53;22.10;;;14.20;99.90;;;;;;6027842;23;20435;-75
2022/10/11 03:03:19;;;;;;;31.50;22.70;;;14.20;99.90;;;;;;6033034;23;20469;-75
2022/10/11 03:05:48;;;;;;;25.33;21.50;;;14.20;99.90;;;;;;6032211;23;20450;-75
2022/10/11 03:08:17;;;;;;;24.13;21.57;;;14.30;99.90;;;;;;6005199;23;20526;-75
2022/10/11 03:10:47;;;;;;;28.33;21.87;;;14.20;99.90;;;;;;6007162;23;20516;-75
2022/10/11 03:13:14;;;;;;;25.30;21.93;;;14.20;99.90;;;;;;6030027;23;21165;-75
2022/10/11 03:15:42;;;;;;;25.47;19.33;;;14.20;99.90;;;;;;6026398;23;20478;-75
2022/10/11 03:18:10;;;;;;;22.97;20.43;;;14.20;99.90;;;;;;6008296;23;20457;-75
2022/10/11 03:20:37;;;;;;;22.83;20.30;;;14.20;99.90;;;;;;5999683;23;20446;-75
2022/10/11 03:23:07;;;;;;;22.73;20.33;;;14.30;99.90;;;;;;6030081;23;20466;-75
2022/10/11 03:25:36;;;;;;;23.27;19.93;;;14.30;99.90;;;;;;6032077;23;20453;-75
2022/10/11 03:28:04;;;;;;;22.57;20.27;;;14.30;99.90;;;;;;6031189;23;20444;-75
2022/10/11 03:30:33;;;;;;;22.23;19.83;;;14.30;99.90;;;;;;6030990;23;20912;-75
2022/10/11 03:33:00;;;;;;;24.90;19.20;;;14.50;99.90;;;;;;6031575;23;20450;-75
2022/10/11 03:35:27;;;;;;;21.30;17.53;;;14.40;99.90;;;;;;6005024;23;20436;-76
2022/10/11 03:37:54;;;;;;;20.43;18.27;;;14.40;99.90;;;;;;6000124;23;20451;-76
2022/10/11 03:40:23;;;;;;;23.20;19.27;;;14.40;99.90;;;;;;6030859;23;20451;-75
2022/10/11 03:42:50;;;;;;;22.00;19.03;;;14.40;99.90;;;;;;6024556;23;20533;-74
2022/10/11 03:45:17;;;;;;;20.63;18.43;;;14.40;99.90;;;;;;6031528;23;20498;-75
2022/10/11 03:47:45;;;;;;;21.60;19.40;;;14.40;99.90;;;;;;5984929;23;20526;-74
2022/10/11 03:50:12;;;;;;;22.40;18.73;;;14.40;99.90;;;;;;6031233;23;20463;-75
2022/10/11 03:52:39;;;;;;;23.30;20.33;;;14.50;99.90;;;;;;6008711;23;20913;-74
2022/10/11 03:55:09;;;;;;;20.17;17.87;;;14.50;99.90;;;;;;6030969;23;20452;-75
2022/10/11 03:57:38;;;;;;;14.80;10.40;;;14.50;99.90;;;;;;6007407;23;20439;-78
2022/10/11 04:00:07;;;;;;;18.93;16.67;;;14.50;99.90;;;;;;6034007;23;20793;-78
2022/10/11 04:02:37;;;;;;;24.13;19.77;;;14.50;99.90;;;;;;6032988;23;20869;-76
2022/10/11 04:05:05;;;;;;;22.50;18.90;;;14.50;99.90;;;;;;6032476;23;20480;-76
2022/10/11 04:07:32;;;;;;;22.87;20.37;;;14.50;99.90;;;;;;6034490;23;20439;-76
2022/10/11 04:10:00;;;;;;;29.40;22.63;;;14.40;99.90;;;;;;6033707;23;20525;-76
2022/10/11 04:12:29;;;;;;;25.27;21.60;;;14.40;99.90;;;;;;5985705;23;20434;-76
2022/10/11 04:14:58;;;;;;;29.03;21.20;;;14.40;99.90;;;;;;6032184;23;20447;-76
2022/10/11 04:17:25;;;;;;;26.60;21.53;;;14.40;99.90;;;;;;6009634;23;20495;-76
2022/10/11 04:19:52;;;;;;;28.00;21.70;;;14.30;99.90;;;;;;6033571;23;20442;-75
2022/10/11 04:22:19;;;;;;;24.03;21.40;;;14.30;99.90;;;;;;6032034;23;20994;-74
2022/10/11 04:24:49;;;;;;;23.23;20.83;;;14.30;99.90;;;;;;6034288;23;20493;-74
2022/10/11 04:27:16;;;;;;;22.27;19.87;;;14.30;99.90;;;;;;6033968;23;20492;-75
2022/10/11 04:29:46;;;;;;;24.43;21.73;;;14.30;99.90;;;;;;6033114;23;20426;-75
2022/10/11 04:32:14;;;;;;;24.77;22.07;;;14.40;99.90;;;;;;6033084;23;20928;-75
2022/10/11 04:34:42;;;;;;;22.57;19.70;;;14.40;99.90;;;;;;6033174;23;20821;-75
2022/10/11 04:37:09;;;;;;;22.60;19.00;;;14.40;99.90;;;;;;6031328;23;20551;-75
2022/10/11 04:39:38;;;;;;;21.67;18.97;;;14.40;99.90;;;;;;6034354;23;20444;-74
2022/10/11 04:42:05;;;;;;;23.13;18.20;;;14.50;99.90;;;;;;6029048;23;20468;-76
2022/10/11 04:44:32;;;;;;;19.67;17.77;;;14.50;99.90;;;;;;6010289;23;20454;-76
2022/10/11 04:47:00;;;;;;;23.00;18.13;;;14.60;99.90;;;;;;6033418;23;20535;-76
2022/10/11 04:49:29;;;;;;;21.10;18.90;;;14.50;99.90;;;;;;6032721;23;20444;-76
2022/10/11 04:51:56;;;;;;;20.07;18.07;;;14.60;99.90;;;;;;6005399;23;20440;-76
2022/10/11 04:54:23;;;;;;;20.17;18.10;;;14.60;99.90;;;;;;6030333;23;21299;-76
2022/10/11 04:56:50;;;;;;;20.43;18.20;;;14.60;99.90;;;;;;6009740;23;20482;-76
2022/10/11 04:59:17;;;;;;;28.30;19.17;;;14.70;99.90;;;;;;6034296;23;20440;-76
2022/10/11 05:01:44;;;;;;;20.67;18.50;;;14.70;99.90;;;;;;6034009;23;20853;-76
2022/10/11 05:04:13;;;;;;;18.33;16.23;;;14.60;99.90;;;;;;6034040;23;20444;-76
2022/10/11 05:06:41;;;;;;;21.20;19.00;;;14.70;99.90;;;;;;6008528;23;20780;-76
2022/10/11 05:09:09;;;;;;;18.50;16.50;;;14.70;99.90;;;;;;6008307;23;20445;-76
2022/10/11 05:11:36;;;;;;;19.43;16.60;;;14.60;99.90;;;;;;6033584;23;20447;-76
2022/10/11 05:14:03;;;;;;;21.10;17.73;;;14.60;99.90;;;;;;5983166;23;20434;-76
2022/10/11 05:16:30;;;;;;;18.30;15.33;;;14.60;99.90;;;;;;6031358;23;20478;-76
2022/10/11 05:18:57;;;;;;;20.70;17.90;;;14.60;99.90;;;;;;6033293;23;20450;-76
2022/10/11 05:21:26;;;;;;;19.10;17.13;;;14.60;99.90;;;;;;6034223;23;20948;-76
2022/10/11 05:23:56;;;;;;;21.97;17.40;;;14.60;99.90;;;;;;6009001;23;20458;-76
2022/10/11 05:26:24;;;;;;;19.60;16.43;;;14.60;99.90;;;;;;6010415;23;20452;-76
2022/10/11 05:28:51;;;;;;;18.47;16.63;;;14.50;99.90;;;;;;6034268;23;20479;-76
2022/10/11 05:31:19;;;;;;;19.83;17.63;;;14.60;99.90;;;;;;6034555;23;20431;-76
2022/10/11 05:33:46;;;;;;;19.97;17.80;;;14.50;99.90;;;;;;6033218;23;20460;-76
2022/10/11 05:36:14;;;;;;;20.73;15.90;;;14.50;99.90;;;;;;6034328;23;20427;-76
2022/10/11 05:38:41;;;;;;;21.87;17.93;;;14.70;99.90;;;;;;6033040;23;20798;-76
2022/10/11 05:41:12;;;;;;;20.43;18.33;;;14.50;99.90;;;;;;6033821;23;20498;-76
2022/10/11 05:43:39;;;;;;;19.33;17.37;;;14.50;99.90;;;;;;6033156;23;20486;-76
2022/10/11 05:46:06;;;;;;;20.87;17.30;;;14.40;99.90;;;;;;6033756;23;20443;-76
2022/10/11 05:48:33;;;;;;;21.90;17.30;;;14.40;99.90;;;;;;6008872;23;20435;-76
2022/10/11 05:51:01;;;;;;;20.20;18.10;;;14.30;99.90;;;;;;6033684;23;20952;-76
2022/10/11 05:53:30;;;;;;;20.53;18.50;;;14.30;99.90;;;;;;6033953;23;20798;-76
2022/10/11 05:55:57;;;;;;;20.80;18.07;;;14.30;99.90;;;;;;6033361;23;20450;-76
2022/10/11 05:58:26;;;;;;;26.63;19.00;;;14.30;99.90;;;;;;6033959;23;20446;-76
2022/10/11 06:00:55;;;;;;;21.73;19.43;;;14.20;99.90;;;;;;6022656;23;20955;-76
2022/10/11 06:03:23;;;;;;;18.40;16.50;;;14.20;99.90;;;;;;6027693;23;20533;-76
2022/10/11 06:05:50;;;;;;;21.50;16.60;;;14.20;99.90;;;;;;6033696;23;20476;-76
2022/10/11 06:08:17;;;;;;;21.23;18.93;;;14.20;99.90;;;;;;6034034;23;20967;-76
2022/10/11 06:10:44;;;;;;;20.13;17.00;;;14.10;99.90;;;;;;6033335;23;20435;-76
2022/10/11 06:13:12;;;;;;;20.33;17.50;;;14.10;99.90;;;;;;6008443;23;20431;-76
2022/10/11 06:15:41;;;;;;;20.43;16.67;;;14.10;99.90;;;;;;6033763;23;20513;-76
2022/10/11 06:18:08;;;;;;;20.30;18.17;;;14.10;99.90;;;;;;6022277;23;20478;-75
2022/10/11 06:20:37;;;;;;;21.83;17.40;;;14.10;99.90;;;;;;6033939;23;20442;-77
2022/10/11 06:23:04;;;;;;;19.47;17.27;;;14.00;99.90;;;;;;6033293;23;20482;-76
2022/10/11 06:25:31;;;;;;;20.40;18.27;;;14.10;99.90;;;;;;6032884;23;20495;-76
2022/10/11 06:27:58;;;;;;;19.57;17.47;;;14.10;99.90;;;;;;6033469;23;20525;-76
2022/10/11 06:30:25;;;;;;;19.60;17.57;;;14.10;99.90;;;;;;6032495;23;20475;-76
2022/10/11 06:32:54;;;;;;;22.80;17.47;;;14.10;99.90;;;;;;6034098;23;20451;-76
2022/10/11 06:35:21;;;;;;;19.10;16.50;;;14.30;99.90;;;;;;6033251;23;20470;-76
2022/10/11 06:37:48;;;;;;;17.10;15.17;;;14.20;99.90;;;;;;6032716;23;20532;-76
2022/10/11 06:40:16;;;;;;;19.83;17.73;;;14.20;99.90;;;;;;5961538;23;20459;-76
2022/10/11 06:42:47;;;;;;;17.47;15.67;;;14.20;99.90;;;;;;6033511;23;20455;-76
2022/10/11 06:45:15;;;;;;;20.80;17.80;;;14.20;99.90;;;;;;6032124;23;20491;-76
2022/10/11 06:47:42;;;;;;;18.00;16.10;;;14.20;99.90;;;;;;6033638;23;20426;-76
2022/10/11 06:50:10;;;;;;;18.17;15.93;;;14.20;99.90;;;;;;6033732;23;20474;-76
2022/10/11 06:52:37;;;;;;;19.63;16.60;;;14.20;99.90;;;;;;5984948;23;20435;-76
2022/10/11 06:55:05;;;;;;;22.03;17.60;;;14.20;99.90;;;;;;6033097;23;20450;-76
2022/10/11 06:57:32;;;;;;;16.93;15.10;;;14.20;99.90;;;;;;6033421;23;20521;-76
2022/10/11 06:59:59;;;;;;;21.13;17.40;;;14.20;99.90;;;;;;6033073;23;20450;-76
2022/10/11 07:02:26;;;;;;;20.60;17.13;;;14.30;99.90;;;;;;6033384;23;20438;-76
2022/10/11 07:04:53;;;;;;;18.53;15.37;;;14.30;99.90;;;;;;5973857;23;20442;-76
2022/10/11 07:07:22;;;;;;;17.37;15.40;;;14.30;99.90;;;;;;6033722;23;20423;-76
2022/10/11 07:09:49;;;;;;;16.80;15.07;;;14.30;99.90;;;;;;6032706;23;20481;-76
2022/10/11 07:12:31;;;;;;;16.90;15.03;;;14.30;99.90;;;;;;6013978;23;20528;-76
2022/10/11 07:14:58;;;;;;;16.97;15.17;;;14.30;99.90;;;;;;6027180;23;20467;-75
2022/10/11 07:17:25;;;;;;;20.10;16.60;;;14.30;99.90;;;;;;6032725;23;20488;-76
2022/10/11 07:19:53;;;;;;;18.67;16.67;;;14.40;99.90;;;;;;6033141;23;20435;-76
2022/10/11 07:22:22;;;;;;;17.20;15.50;;;14.40;99.90;;;;;;6032498;23;20478;-76
2022/10/11 07:24:49;;;;;;;20.20;15.77;;;14.40;99.90;;;;;;6033088;23;20430;-76
2022/10/11 07:27:16;;;;;;;16.97;15.10;;;14.40;99.90;;;;;;6007016;23;20441;-76
2022/10/11 07:29:43;;;;;;;22.00;15.20;;;14.40;99.90;;;;;;6034041;23;20450;-76
2022/10/11 07:32:10;;;;;;;17.33;14.97;;;14.40;99.90;;;;;;6033615;23;20479;-76
2022/10/11 07:34:39;;;;;;;15.40;13.90;;;14.50;99.90;;;;;;6034617;23;20432;-76
2022/10/11 07:37:06;;;;;;;17.23;14.60;;;14.60;99.90;;;;;;6034371;23;20951;-76
2022/10/11 07:39:35;;;;;;;16.73;14.73;;;14.70;99.90;;;;;;6034508;23;20789;-76
2022/10/11 07:42:03;;;;;;;16.90;15.23;;;14.70;99.90;;;;;;6033796;23;20439;-76
2022/10/11 07:44:30;;;;;;;16.43;14.70;;;14.70;99.90;;;;;;6009225;23;20452;-76
2022/10/11 07:46:57;;;;;;;19.30;15.17;;;14.70;99.90;;;;;;6033647;23;20579;-76
2022/10/11 07:49:24;;;;;;;16.83;15.00;;;14.80;99.90;;;;;;6009271;23;20604;-76
2022/10/11 07:51:51;;;;;;;17.03;14.77;;;14.70;99.90;;;;;;6034823;23;20499;-76
2022/10/11 07:54:18;;;;;;;19.30;14.73;;;14.80;99.90;;;;;;6032701;23;20486;-76
2022/10/11 07:56:47;;;;;;;17.20;14.80;;;14.80;99.90;;;;;;6034803;23;20467;-76
2022/10/11 07:59:14;;;;;;;18.70;15.53;;;14.90;99.90;;;;;;6033841;23;20440;-76
2022/10/11 08:01:41;;;;;;;14.27;12.83;;;14.90;99.90;;;;;;6033962;23;20459;-76
2022/10/11 08:04:08;;;;;;;16.90;14.30;;;14.90;99.90;;;;;;6009521;23;20456;-76
2022/10/11 08:06:36;;;;;;;24.40;15.80;;;14.90;99.90;;;;;;6033274;23;20578;-76
2022/10/11 08:09:04;;;;;;;19.10;15.73;;;15.00;99.90;;;;;;6034574;23;20459;-76
2022/10/11 08:11:33;;;;;;;16.00;14.13;;;15.10;99.90;;;;;;6009339;23;20523;-76
2022/10/11 08:14:07;;;;;;;15.53;13.50;;;15.10;99.90;;;;;;6008529;23;20510;-76
2022/10/11 08:16:34;;;;;;;14.87;13.03;;;15.10;99.90;;;;;;6033712;23;20804;-76
2022/10/11 08:19:02;;;;;;;16.13;14.00;;;15.20;99.90;;;;;;6033308;23;20972;-76
2022/10/11 08:21:30;;;;;;;16.20;14.70;;;15.20;99.90;;;;;;6032355;23;20498;-73
2022/10/11 08:23:57;;;;;;;14.80;13.30;;;15.30;99.90;;;;;;6033470;23;20511;-73
2022/10/11 08:26:24;;;;;;;16.80;15.20;;;15.30;99.90;;;;;;6008538;23;20424;-73
2022/10/11 08:28:52;;;;;;;18.50;14.60;;;15.40;99.90;;;;;;6006952;23;20436;-73
2022/10/11 08:31:21;;;;;;;14.80;13.40;;;15.40;99.90;;;;;;6033195;23;20785;-73
2022/10/11 08:33:48;;;;;;;16.80;15.00;;;15.30;99.90;;;;;;6007270;23;20506;-73
2022/10/11 08:36:15;;;;;;;20.03;14.33;;;15.30;99.90;;;;;;6032966;23;20460;-73
2022/10/11 08:38:42;;;;;;;17.37;15.33;;;15.20;99.90;;;;;;6032918;23;20914;-75
2022/10/11 08:41:26;;;;;;;16.87;14.30;;;15.20;99.90;;;;;;6008670;23;20755;-75
2022/10/11 08:44:03;;;;;;;15.23;13.80;;;15.20;99.90;;;;;;6030429;23;20483;-75
2022/10/11 08:46:36;;;;;;;15.87;14.10;;;15.10;99.90;;;;;;6033924;23;20956;-75
2022/10/11 08:49:06;;;;;;;19.53;14.27;;;15.10;99.90;;;;;;6010483;23;20520;-75
2022/10/11 08:51:38;;;;;;;14.80;13.30;;;15.10;99.90;;;;;;6008666;23;20444;-75
2022/10/11 08:54:12;;;;;;;17.17;13.27;;;15.10;99.90;;;;;;6033103;23;20964;-74
2022/10/11 08:56:42;;;;;;;16.17;14.40;;;15.20;99.90;;;;;;6034232;23;20435;-75
2022/10/11 08:59:25;;;;;;;15.60;14.20;;;15.20;99.90;;;;;;6034595;23;20444;-75
2022/10/11 09:02:01;;;;;;;16.70;14.47;;;15.20;99.90;;;;;;6034759;23;20436;-75
2022/10/11 09:04:31;;;;;;;18.73;14.60;;;15.20;99.90;;;;;;6033176;23;20574;-75
2022/10/11 09:07:04;;;;;;;19.97;15.03;;;15.20;99.90;;;;;;6025828;23;20511;-75
2022/10/11 09:09:57;;;;;;;16.90;14.20;;;15.30;99.90;;;;;;6008269;23;20444;-75
2022/10/11 09:12:34;;;;;;;14.33;12.47;;;15.50;99.90;;;;;;6034670;23;20937;-75
2022/10/11 09:15:19;;;;;;;16.07;13.30;;;15.60;99.90;;;;;;6023998;23;20502;-75
2022/10/11 09:18:03;;;;;;;15.40;13.93;;;15.70;99.90;;;;;;6033201;23;20518;-75
2022/10/11 09:20:47;;;;;;;14.10;12.63;;;15.80;99.90;;;;;;6004929;23;20444;-75
2022/10/11 09:23:28;;;;;;;17.13;14.00;;;15.90;99.90;;;;;;6007223;23;20525;-75
2022/10/11 09:25:58;;;;;;;15.17;12.47;;;15.90;99.90;;;;;;6034144;23;20438;-75
2022/10/11 09:28:49;;;;;;;14.07;12.40;;;16.00;99.90;;;;;;6033809;23;20440;-75
2022/10/11 09:31:17;;;;;;;16.10;12.80;;;16.00;99.90;;;;;;6032345;23;20440;-75
2022/10/11 09:33:48;;;;;;;15.00;11.60;;;16.10;99.90;;;;;;6033812;23;20420;-75
2022/10/11 09:36:22;;;;;;;14.07;11.40;;;16.10;99.90;;;;;;6009573;23;20420;-75
2022/10/11 09:38:56;;;;;;;13.63;12.23;;;16.20;99.90;;;;;;6019637;23;20435;-75
2022/10/11 09:41:30;;;;;;;13.10;11.90;;;16.20;99.90;;;;;;6033208;23;20440;-75
2022/10/11 09:43:57;;;;;;;13.67;12.23;;;16.30;99.90;;;;;;6032354;23;20521;-75
2022/10/11 09:46:32;;;;;;;15.67;12.70;;;16.30;99.90;;;;;;6034060;23;20460;-76
2022/10/11 09:49:03;;;;;;;13.57;11.37;;;16.30;99.90;;;;;;6033172;23;20542;-75
2022/10/11 09:51:31;;;;;;;12.43;11.17;;;16.40;99.90;;;;;;6033814;23;20451;-75
2022/10/11 09:54:00;;;;;;;14.53;12.27;;;16.50;99.90;;;;;;6034031;23;20420;-75
2022/10/11 09:56:29;;;;;;;12.83;11.60;;;16.60;99.90;;;;;;6023323;23;20479;-76
2022/10/11 09:59:24;;;;;;;16.00;12.53;;;16.60;99.90;;;;;;6033931;23;20937;-75
2022/10/11 10:02:18;;;;;;;13.10;11.90;;;16.70;99.90;;;;;;6032667;23;20471;-75
2022/10/11 10:05:02;;;;;;;12.07;10.97;;;16.70;99.90;;;;;;6008880;23;20444;-75
2022/10/11 10:07:32;;;;;;;13.67;11.10;;;16.70;99.90;;;;;;6034557;23;20442;-74
2022/10/11 10:10:00;;;;;;;13.40;10.90;;;16.70;99.90;;;;;;6033630;23;20424;-75
2022/10/11 10:12:30;;;;;;;11.90;10.80;;;16.80;99.90;;;;;;5985257;23;20428;-75
2022/10/11 10:15:06;;;;;;;11.60;10.43;;;16.90;99.90;;;;;;6033862;23;20996;-75
2022/10/11 10:17:36;;;;;;;11.80;10.27;;;17.00;99.90;;;;;;6030981;23;20956;-75
2022/10/11 10:20:06;;;;;;;11.03;10.10;;;17.10;99.90;;;;;;6008295;23;20436;-75
2022/10/11 10:22:35;;;;;;;12.47;9.73;;;17.20;99.90;;;;;;6033659;23;20526;-75
2022/10/11 10:25:06;;;;;;;11.03;9.40;;;17.30;99.90;;;;;;6034042;23;20452;-75
2022/10/11 10:27:34;;;;;;;10.60;9.60;;;17.30;99.90;;;;;;6023696;23;20910;-75
2022/10/11 10:30:19;;;;;;;10.30;9.40;;;17.30;99.90;;;;;;6033703;23;20467;-75
2022/10/11 10:32:54;;;;;;;11.40;10.27;;;17.30;99.90;;;;;;6025604;23;20499;-75
2022/10/11 10:35:44;;;;;;;11.30;10.30;;;17.30;99.90;;;;;;6032172;23;20432;-75
2022/10/11 10:38:16;;;;;;;10.93;9.83;;;17.20;99.90;;;;;;6032511;23;20806;-75
2022/10/11 10:40:46;;;;;;;12.03;10.23;;;17.20;99.90;;;;;;6033291;23;20420;-75
2022/10/11 10:43:16;;;;;;;12.23;10.10;;;17.10;99.90;;;;;;6033840;23;20440;-75
2022/10/11 10:46:09;;;;;;;10.57;9.63;;;17.20;99.90;;;;;;6008887;23;20466;-75
2022/10/11 10:48:43;;;;;;;11.23;10.07;;;17.30;99.90;;;;;;6023429;23;20417;-75
2022/10/11 10:51:23;;;;;;;11.90;10.70;;;17.30;99.90;;;;;;6032634;23;20434;-75
2022/10/11 10:54:06;;;;;;;10.30;9.40;;;17.50;99.90;;;;;;6034059;23;21230;-75
2022/10/11 10:56:38;;;;;;;11.50;10.30;;;17.80;99.90;;;;;;6032928;23;20464;-74
2022/10/11 10:59:35;;;;;;;11.93;9.83;;;18.00;99.90;;;;;;6033225;23;20447;-75
2022/10/11 11:02:13;;;;;;;10.70;9.67;;;18.30;99.90;;;;;;6006660;23;20468;-75
2022/10/11 11:04:49;;;;;;;11.00;10.00;;;18.30;99.90;;;;;;6031021;23;20463;-75
2022/10/11 11:07:26;;;;;;;11.63;8.43;;;18.50;99.90;;;;;;5987799;23;20432;-75
2022/10/11 11:10:02;;;;;;;10.03;9.10;;;18.50;99.90;;;;;;6033857;23;20444;-75
2022/10/11 11:12:43;;;;;;;8.83;8.13;;;18.70;99.90;;;;;;6034958;23;20435;-75
2022/10/11 11:15:16;;;;;;;11.23;10.30;;;18.80;99.90;;;;;;6029615;23;20525;-75
2022/10/11 11:17:58;;;;;;;10.97;9.97;;;18.80;99.90;;;;;;6029546;23;20994;-75
2022/10/11 11:20:42;;;;;;;11.23;10.13;;;18.80;99.90;;;;;;5999208;23;20518;-75
2022/10/11 11:23:22;;;;;;;9.57;8.77;;;18.70;99.90;;;;;;6033913;23;21195;-75
2022/10/11 11:25:57;;;;;;;9.73;8.60;;;18.70;99.90;;;;;;6035089;23;20464;-75
2022/10/11 11:28:40;;;;;;;10.63;9.53;;;18.70;99.90;;;;;;6026550;23;20441;-75
2022/10/11 11:31:19;;;;;;;9.87;8.90;;;18.50;99.90;;;;;;6001239;23;20858;-75
2022/10/11 11:33:57;;;;;;;9.40;8.50;;;18.50;99.90;;;;;;6034652;23;20945;-75
2022/10/11 11:36:30;;;;;;;9.60;8.40;;;18.40;99.90;;;;;;6033175;23;20471;-75
2022/10/11 11:39:02;;;;;;;10.47;9.47;;;18.30;99.90;;;;;;5975382;23;20436;-75
2022/10/11 11:41:36;;;;;;;9.20;8.23;;;18.30;99.90;;;;;;6030473;23;20615;-74
2022/10/11 11:44:10;;;;;;;10.57;8.73;;;18.20;99.90;;;;;;6031712;23;20474;-74
2022/10/11 11:46:42;;;;;;;9.90;8.43;;;18.10;99.90;;;;;;6028906;23;20531;-73
2022/10/11 11:49:16;;;;;;;10.73;9.73;;;18.10;99.90;;;;;;6001519;23;20444;-74
2022/10/11 11:51:45;;;;;;;9.97;9.00;;;18.00;99.90;;;;;;6032368;23;20493;-74
2022/10/11 11:54:27;;;;;;;10.20;9.20;;;17.90;99.90;;;;;;6007648;23;20919;-75
2022/10/11 11:57:00;;;;;;;11.83;10.33;;;17.80;99.90;;;;;;6030972;23;20440;-75
2022/10/11 11:59:35;;;;;;;11.30;10.30;;;17.50;99.90;;;;;;6030388;23;20527;-74
2022/10/11 12:02:18;;;;;;;10.83;9.50;;;17.30;99.90;;;;;;6033706;23;20420;-75
2022/10/11 12:04:47;;;;;;;12.00;9.77;;;17.10;99.90;;;;;;6028930;23;21053;-74
2022/10/11 12:07:17;;;;;;;8.73;7.80;;;17.00;99.90;;;;;;6031303;23;21053;-74
2022/10/11 12:09:49;;;;;;;10.63;9.60;;;17.00;99.90;;;;;;6031743;23;20493;-75
2022/10/11 12:12:32;;;;;;;10.97;9.70;;;17.00;99.90;;;;;;6033786;23;20890;-75
2022/10/11 12:15:15;;;;;;;11.07;9.87;;;16.90;99.90;;;;;;6029140;23;20579;-75
2022/10/11 12:18:02;;;;;;;10.40;9.40;;;16.90;99.90;;;;;;6003902;23;20439;-74
2022/10/11 12:20:31;;;;;;;13.53;9.90;;;16.90;99.90;;;;;;6024588;23;20439;-74
2022/10/11 12:23:00;;;;;;;10.70;9.60;;;16.90;99.90;;;;;;6032553;23;20444;-75
2022/10/11 12:25:42;;;;;;;10.00;9.00;;;16.90;99.90;;;;;;6008116;23;20474;-75
2022/10/11 12:28:48;;;;;;;8.93;8.13;;;16.80;99.90;;;;;;6027206;23;20449;-74
2022/10/11 12:31:24;;;;;;;10.67;9.67;;;16.80;99.90;;;;;;6032240;23;20957;-74
2022/10/11 12:34:02;;;;;;;10.20;9.30;;;16.80;99.90;;;;;;6007886;23;20439;-74
2022/10/11 12:36:40;;;;;;;11.10;10.10;;;16.90;99.90;;;;;;6003851;23;20444;-74
2022/10/11 12:39:40;;;;;;;10.10;9.10;;;17.00;99.90;;;;;;6028746;23;20466;-73
2022/10/11 12:42:24;;;;;;;10.93;9.80;;;17.10;99.90;;;;;;6030827;23;20428;-74
2022/10/11 12:45:30;;;;;;;10.67;9.30;;;17.10;99.90;;;;;;5999230;23;20518;-78
2022/10/11 12:48:18;;;;;;;9.43;8.67;;;17.00;99.90;;;;;;6003503;23;20444;-75
2022/10/11 12:50:58;;;;;;;11.03;9.93;;;17.00;99.90;;;;;;6031871;23;20551;-73
2022/10/11 12:53:40;;;;;;;11.03;9.70;;;16.90;99.90;;;;;;6030421;23;20475;-74
2022/10/11 12:56:12;;;;;;;10.97;9.87;;;16.90;99.90;;;;;;6024180;23;20446;-74